Myerstown, Pennsylvania
Current Conditions -  °F | °C
As of 5:58 PM on Wednesday 22 Oct 2014 (Local Time) from KMUI Reporting Station
Overcast Overcast  
Wind Chill: 53°   Ceiling: 2100
Heat Index: 53°   Visibility: 10mi
Dew Point: 49°   Wind: 18mph
Humidity: 88%   Direction: 340°NNW
Pressure: 29.94"   Gusts: 31mph
Location:  40.37°N, 76.3°W
Report Text: KMUI 222158Z AUTO 34016G27KT 10SM BKN021 OVC130 12/10 A2994 RMK AO2 PK WND 33027/19 BKN V OVC SLP142 T01160096 $
Loading
Personal Weather Stations






























Interactive Weather Map New forecast layout! Learn more

10-Day Weather Forecast

Advertisements
Track Severe Weather on mobile